Dirección General De Aeronáutica Civil

Dirección Meteorológica de Chile - Servicios Climáticos

Informe General de Control de Calidad de la Estación

Listado de niveles de control de calidad para algunos parámetros
Estación Parral (FDF) (360043)
Fecha de Revisión de los datos :

Elementos

Registros Niveles de Control Total
Nivel 0 Nivel 1 Nivel 2 Nivel 3 Errores Porcentaje
01 Temperatura del Aire Seco 122.388 0 . 350 0.29 % 0 . 0 . 350 0.29 %
02 Temperatura de Rocío 122.159 22 0.02 % 0 . 0 . 0 . 22 0.02 %
03 Humedad Relativa del Aire 122.415 0 . 0 . 0 . 0 . 0 0.00 %
04 Temperatura Máxima PM 1.199 0 . 0 . 0 . 0 . 0 0.00 %
05 Temperatura Mínima AM 1.222 0 . 0 . 0 . 0 . 0 0.00 %
06 Agua Caida, Acumulada 6 Horas 21.744 0 . 0 . 0 . 0 . 0 0.00 %
07 Presión Atm. a Nivel de Estación (QFE) 121.912 0 . 0 . 0 . 0 . 0 0.00 %
08 Presión Atm. a Nivel Medio del Mar (QFF) 28.921 0 . 0 . 0 . 0 . 0 0.00 %
09 Presión Atm. Estándar OACI (QNH) 28.921 0 . 0 . 0 . 0 . 0 0.00 %

Totales

570.881 . 0.0039 % . 0.0613 % . 0.0000 % . 0.0000 % 372 0.0652 %

Detalle de Errores Encontrados

Nivel Fecha del Dato Descripción Información Error Fecha Ingreso
0 2021-11-14 11:00:00 Td (Temperatura Del Punto de Rocio) debe ser numérico, entre -50.0 y 50.0 -54.6
0 2021-11-26 07:00:00 Td (Temperatura Del Punto de Rocio) debe ser numérico, entre -50.0 y 50.0 -54.8
0 2021-11-30 09:00:00 Td (Temperatura Del Punto de Rocio) debe ser numérico, entre -50.0 y 50.0 -54.7
0 2021-12-01 09:00:00 Td (Temperatura Del Punto de Rocio) debe ser numérico, entre -50.0 y 50.0 -62.0
0 2021-12-01 14:00:00 Td (Temperatura Del Punto de Rocio) debe ser numérico, entre -50.0 y 50.0 -58.5
0 2021-12-12 08:00:00 Td (Temperatura Del Punto de Rocio) debe ser numérico, entre -50.0 y 50.0 -51.7
0 2021-12-13 07:00:00 Td (Temperatura Del Punto de Rocio) debe ser numérico, entre -50.0 y 50.0 -57.4
0 2021-12-13 09:00:00 Td (Temperatura Del Punto de Rocio) debe ser numérico, entre -50.0 y 50.0 -55.0
0 2021-12-14 10:00:00 Td (Temperatura Del Punto de Rocio) debe ser numérico, entre -50.0 y 50.0 -50.2
0 2021-12-17 08:00:00 Td (Temperatura Del Punto de Rocio) debe ser numérico, entre -50.0 y 50.0 -62.3
0 2021-12-17 09:00:00 Td (Temperatura Del Punto de Rocio) debe ser numérico, entre -50.0 y 50.0 -50.2
0 2021-12-18 09:00:00 Td (Temperatura Del Punto de Rocio) debe ser numérico, entre -50.0 y 50.0 -57.9
0 2021-12-19 07:00:00 Td (Temperatura Del Punto de Rocio) debe ser numérico, entre -50.0 y 50.0 -51.8
0 2021-12-23 06:00:00 Td (Temperatura Del Punto de Rocio) debe ser numérico, entre -50.0 y 50.0 -50.7
0 2021-12-25 10:00:00 Td (Temperatura Del Punto de Rocio) debe ser numérico, entre -50.0 y 50.0 -50.7
0 2021-12-30 05:00:00 Td (Temperatura Del Punto de Rocio) debe ser numérico, entre -50.0 y 50.0 -52.7
0 2021-12-30 06:00:00 Td (Temperatura Del Punto de Rocio) debe ser numérico, entre -50.0 y 50.0 -58.1
0 2022-01-02 05:00:00 Td (Temperatura Del Punto de Rocio) debe ser numérico, entre -50.0 y 50.0 -60.3
0 2022-01-20 11:00:00 Td (Temperatura Del Punto de Rocio) debe ser numérico, entre -50.0 y 50.0 -52.5
0 2022-01-22 11:00:00 Td (Temperatura Del Punto de Rocio) debe ser numérico, entre -50.0 y 50.0 -54.3
0 2022-03-20 11:00:00 Td (Temperatura Del Punto de Rocio) debe ser numérico, entre -50.0 y 50.0 -60.9
0 2022-03-23 06:00:00 Td (Temperatura Del Punto de Rocio) debe ser numérico, entre -50.0 y 50.0 -54.9
Errores del Nivel 22
Nivel Fecha del Dato Descripción Información Error Fecha Ingreso
1 2016-04-21 12:00:00 Ts debe ser mayor o igual a Td Ts=8.8 - Td=8.9 2023-11-19 06:01:00
1 2016-05-04 10:00:00 Ts debe ser mayor o igual a Td Ts=10.8 - Td=10.9 2023-11-19 06:01:00
1 2016-05-06 06:00:00 Ts debe ser mayor o igual a Td Ts=8.3 - Td=8.4 2023-11-19 06:01:00
1 2016-05-06 09:00:00 Ts debe ser mayor o igual a Td Ts=7.4 - Td=7.5 2023-11-19 06:01:00
1 2016-05-07 13:00:00 Ts debe ser mayor o igual a Td Ts=7.5 - Td=7.6 2023-11-19 06:01:00
1 2016-05-08 13:00:00 Ts debe ser mayor o igual a Td Ts=10.6 - Td=10.7 2023-11-19 06:01:00
1 2016-05-14 14:00:00 Ts debe ser mayor o igual a Td Ts=13.1 - Td=13.2 2023-11-19 06:01:00
1 2016-05-17 12:00:00 Ts debe ser mayor o igual a Td Ts=7.0 - Td=7.1 2023-11-19 06:02:00
1 2016-05-17 13:00:00 Ts debe ser mayor o igual a Td Ts=8.6 - Td=8.7 2023-11-19 06:02:00
1 2016-05-18 13:00:00 Ts debe ser mayor o igual a Td Ts=10.3 - Td=10.4 2023-11-19 06:02:00
1 2016-05-18 14:00:00 Ts debe ser mayor o igual a Td Ts=10.5 - Td=10.6 2023-11-19 06:02:00
1 2016-05-20 05:00:00 Ts debe ser mayor o igual a Td Ts=7.7 - Td=7.8 2023-11-19 06:02:00
1 2016-05-20 11:00:00 Ts debe ser mayor o igual a Td Ts=8.2 - Td=8.3 2023-11-19 06:02:00
1 2016-05-20 13:00:00 Ts debe ser mayor o igual a Td Ts=8.5 - Td=8.6 2023-11-19 06:02:00
1 2016-05-21 01:00:00 Ts debe ser mayor o igual a Td Ts=11.8 - Td=11.9 2023-11-19 06:02:00
1 2016-05-21 05:00:00 Ts debe ser mayor o igual a Td Ts=10.6 - Td=10.7 2023-11-19 06:02:00
1 2016-05-21 14:00:00 Ts debe ser mayor o igual a Td Ts=13.1 - Td=13.2 2023-11-19 06:02:00
1 2016-05-23 09:00:00 Ts debe ser mayor o igual a Td Ts=7.7 - Td=7.8 2023-11-19 06:02:00
1 2016-05-26 05:00:00 Ts debe ser mayor o igual a Td Ts=7.6 - Td=7.7 2023-11-19 06:02:00
1 2016-05-27 02:00:00 Ts debe ser mayor o igual a Td Ts=8.7 - Td=8.8 2023-11-19 06:02:00
1 2016-05-27 06:00:00 Ts debe ser mayor o igual a Td Ts=10.4 - Td=10.5 2023-11-19 06:02:00
1 2016-05-28 10:00:00 Ts debe ser mayor o igual a Td Ts=8.5 - Td=8.6 2023-11-19 06:02:00
1 2016-05-28 11:00:00 Ts debe ser mayor o igual a Td Ts=8.7 - Td=8.8 2023-11-19 06:02:00
1 2016-05-31 13:00:00 Ts debe ser mayor o igual a Td Ts=7.5 - Td=7.6 2023-11-19 06:02:00
1 2016-05-31 14:00:00 Ts debe ser mayor o igual a Td Ts=10.8 - Td=10.9 2023-11-19 06:02:00
1 2016-06-01 12:00:00 Ts debe ser mayor o igual a Td Ts=8.5 - Td=8.6 2023-11-19 06:02:00
1 2016-06-03 07:00:00 Ts debe ser mayor o igual a Td Ts=7.1 - Td=7.2 2023-11-19 06:02:00
1 2016-06-04 09:00:00 Ts debe ser mayor o igual a Td Ts=7.6 - Td=7.7 2023-11-19 06:02:00
1 2016-06-13 03:00:00 Ts debe ser mayor o igual a Td Ts=7.1 - Td=7.2 2023-11-19 06:02:00
1 2016-06-14 05:00:00 Ts debe ser mayor o igual a Td Ts=5.6 - Td=5.7 2023-11-19 06:02:00
1 2016-06-14 18:00:00 Ts debe ser mayor o igual a Td Ts=7.7 - Td=7.8 2023-11-19 06:02:00
1 2016-06-14 19:00:00 Ts debe ser mayor o igual a Td Ts=7.7 - Td=7.8 2023-11-19 06:02:00
1 2016-06-18 18:00:00 Ts debe ser mayor o igual a Td Ts=5.6 - Td=5.7 2023-11-19 06:02:00
1 2016-06-20 15:00:00 Ts debe ser mayor o igual a Td Ts=8.1 - Td=8.2 2023-11-19 06:02:00
1 2016-06-24 15:00:00 Ts debe ser mayor o igual a Td Ts=7.1 - Td=7.2 2023-11-19 06:02:00
1 2016-07-08 02:00:00 Ts debe ser mayor o igual a Td Ts=4.8 - Td=4.9 2023-11-19 06:02:00
1 2016-07-14 14:00:00 Ts debe ser mayor o igual a Td Ts=8.5 - Td=8.6 2023-11-19 06:02:00
1 2016-07-19 14:00:00 Ts debe ser mayor o igual a Td Ts=7.5 - Td=7.6 2023-11-19 06:02:00
1 2016-07-19 16:00:00 Ts debe ser mayor o igual a Td Ts=10.3 - Td=10.4 2023-11-19 06:02:00
1 2016-07-22 13:00:00 Ts debe ser mayor o igual a Td Ts=8.4 - Td=8.5 2023-11-19 06:02:00
1 2016-07-27 15:00:00 Ts debe ser mayor o igual a Td Ts=9.0 - Td=9.1 2023-11-19 06:03:00
1 2016-07-29 05:00:00 Ts debe ser mayor o igual a Td Ts=10.3 - Td=10.4 2023-11-19 06:03:00
1 2016-07-31 06:00:00 Ts debe ser mayor o igual a Td Ts=5.7 - Td=5.8 2023-11-19 06:03:00
1 2016-08-01 05:00:00 Ts debe ser mayor o igual a Td Ts=5.6 - Td=5.7 2023-11-19 06:03:00
1 2016-08-04 02:00:00 Ts debe ser mayor o igual a Td Ts=8.9 - Td=9.0 2023-11-19 06:03:00
1 2016-08-04 03:00:00 Ts debe ser mayor o igual a Td Ts=8.8 - Td=8.9 2023-11-19 06:03:00
1 2016-08-04 06:00:00 Ts debe ser mayor o igual a Td Ts=8.2 - Td=8.3 2023-11-19 06:03:00
1 2016-08-04 09:00:00 Ts debe ser mayor o igual a Td Ts=7.4 - Td=7.5 2023-11-19 06:03:00
1 2016-08-05 00:00:00 Ts debe ser mayor o igual a Td Ts=7.6 - Td=7.7 2023-11-19 06:03:00
1 2016-08-08 08:00:00 Ts debe ser mayor o igual a Td Ts=5.6 - Td=5.7 2023-11-19 06:03:00
1 2016-08-08 10:00:00 Ts debe ser mayor o igual a Td Ts=7.4 - Td=7.5 2023-11-19 06:03:00
1 2016-08-08 11:00:00 Ts debe ser mayor o igual a Td Ts=7.0 - Td=7.1 2023-11-19 06:03:00
1 2016-08-14 04:00:00 Ts debe ser mayor o igual a Td Ts=10.6 - Td=10.7 2023-11-19 06:03:00
1 2016-08-14 12:00:00 Ts debe ser mayor o igual a Td Ts=11.4 - Td=11.5 2023-11-19 06:03:00
1 2016-08-14 13:00:00 Ts debe ser mayor o igual a Td Ts=11.6 - Td=11.7 2023-11-19 06:03:00
1 2016-09-13 05:00:00 Ts debe ser mayor o igual a Td Ts=7.8 - Td=7.9 2023-11-19 06:03:00
1 2016-09-18 13:00:00 Ts debe ser mayor o igual a Td Ts=8.1 - Td=8.2 2023-11-19 06:03:00
1 2017-05-03 09:00:00 Ts debe ser mayor o igual a Td Ts=6.9 - Td=7.0 2023-11-19 06:07:00
1 2017-05-03 15:00:00 Ts debe ser mayor o igual a Td Ts=8.9 - Td=9.0 2023-11-19 06:07:00
1 2017-05-15 11:00:00 Ts debe ser mayor o igual a Td Ts=5.6 - Td=5.7 2023-11-19 06:07:00
1 2017-05-15 13:00:00 Ts debe ser mayor o igual a Td Ts=5.7 - Td=5.8 2023-11-19 06:07:00
1 2017-05-15 15:00:00 Ts debe ser mayor o igual a Td Ts=7.6 - Td=7.7 2023-11-19 06:07:00
1 2017-05-16 13:00:00 Ts debe ser mayor o igual a Td Ts=8.9 - Td=9.0 2023-11-19 06:07:00
1 2017-05-22 05:00:00 Ts debe ser mayor o igual a Td Ts=7.6 - Td=7.7 2023-11-19 06:07:00
1 2017-05-22 06:00:00 Ts debe ser mayor o igual a Td Ts=7.2 - Td=7.3 2023-11-19 06:07:00
1 2017-05-25 16:00:00 Ts debe ser mayor o igual a Td Ts=8.2 - Td=8.3 2023-11-19 06:07:00
1 2017-05-27 17:00:00 Ts debe ser mayor o igual a Td Ts=6.9 - Td=7.0 2023-11-19 06:07:00
1 2017-05-30 17:00:00 Ts debe ser mayor o igual a Td Ts=7.5 - Td=7.6 2023-11-19 06:07:00
1 2017-05-31 01:00:00 Ts debe ser mayor o igual a Td Ts=4.8 - Td=4.9 2023-11-19 06:07:00
1 2017-06-03 13:00:00 Ts debe ser mayor o igual a Td Ts=7.1 - Td=7.2 2023-11-19 06:07:00
1 2017-06-08 16:00:00 Ts debe ser mayor o igual a Td Ts=8.3 - Td=8.4 2023-11-19 06:07:00
1 2017-06-10 10:00:00 Ts debe ser mayor o igual a Td Ts=4.8 - Td=4.9 2023-11-19 06:07:00
1 2017-06-14 10:00:00 Ts debe ser mayor o igual a Td Ts=5.6 - Td=5.7 2023-11-19 06:07:00
1 2017-06-29 13:00:00 Ts debe ser mayor o igual a Td Ts=7.2 - Td=7.3 2023-11-19 06:07:00
1 2017-07-01 15:00:00 Ts debe ser mayor o igual a Td Ts=9.1 - Td=9.2 2023-11-19 06:07:00
1 2017-07-04 13:00:00 Ts debe ser mayor o igual a Td Ts=7.3 - Td=7.4 2023-11-19 06:07:00
1 2017-07-04 16:00:00 Ts debe ser mayor o igual a Td Ts=8.2 - Td=8.3 2023-11-19 06:07:00
1 2017-07-27 15:00:00 Ts debe ser mayor o igual a Td Ts=4.8 - Td=4.9 2023-11-19 06:08:00
1 2017-08-07 10:00:00 Ts debe ser mayor o igual a Td Ts=7.8 - Td=7.9 2023-11-19 06:08:00
1 2017-08-07 13:00:00 Ts debe ser mayor o igual a Td Ts=8.9 - Td=9.0 2023-11-19 06:08:00
1 2017-08-07 14:00:00 Ts debe ser mayor o igual a Td Ts=9.1 - Td=9.2 2023-11-19 06:08:00
1 2017-10-04 05:00:00 Ts debe ser mayor o igual a Td Ts=0.0 - Td=8.4 2023-11-19 06:09:00
1 2018-04-29 14:00:00 Ts debe ser mayor o igual a Td Ts=8.1 - Td=8.2 2023-11-19 06:12:00
1 2018-04-29 15:00:00 Ts debe ser mayor o igual a Td Ts=8.6 - Td=8.7 2023-11-19 06:12:00
1 2018-04-29 16:00:00 Ts debe ser mayor o igual a Td Ts=8.7 - Td=8.8 2023-11-19 06:12:00
1 2018-04-29 19:00:00 Ts debe ser mayor o igual a Td Ts=9.4 - Td=9.5 2023-11-19 06:12:00
1 2018-04-29 22:00:00 Ts debe ser mayor o igual a Td Ts=9.0 - Td=9.1 2023-11-19 06:12:00
1 2018-04-30 03:00:00 Ts debe ser mayor o igual a Td Ts=8.5 - Td=8.6 2023-11-19 06:12:00
1 2018-04-30 09:00:00 Ts debe ser mayor o igual a Td Ts=7.0 - Td=7.1 2023-11-19 06:12:00
1 2018-04-30 10:00:00 Ts debe ser mayor o igual a Td Ts=6.9 - Td=7.0 2023-11-19 06:12:00
1 2018-04-30 11:00:00 Ts debe ser mayor o igual a Td Ts=7.2 - Td=7.3 2023-11-19 06:12:00
1 2018-04-30 13:00:00 Ts debe ser mayor o igual a Td Ts=7.8 - Td=7.9 2023-11-19 06:12:00
1 2018-05-05 12:00:00 Ts debe ser mayor o igual a Td Ts=4.8 - Td=4.9 2023-11-19 06:12:00
1 2018-05-08 11:00:00 Ts debe ser mayor o igual a Td Ts=6.9 - Td=7.0 2023-11-19 06:12:00
1 2018-05-14 10:00:00 Ts debe ser mayor o igual a Td Ts=10.4 - Td=10.5 2023-11-19 06:12:00
1 2018-05-20 14:00:00 Ts debe ser mayor o igual a Td Ts=7.2 - Td=7.3 2023-11-19 06:12:00
1 2018-06-06 15:00:00 Ts debe ser mayor o igual a Td Ts=8.2 - Td=8.3 2023-11-19 06:12:00
1 2018-06-09 04:00:00 Ts debe ser mayor o igual a Td Ts=9.1 - Td=9.2 2023-11-19 06:12:00
1 2018-06-09 07:00:00 Ts debe ser mayor o igual a Td Ts=9.0 - Td=9.1 2023-11-19 06:12:00
1 2018-06-09 08:00:00 Ts debe ser mayor o igual a Td Ts=8.6 - Td=8.7 2023-11-19 06:12:00
1 2018-06-17 16:00:00 Ts debe ser mayor o igual a Td Ts=8.9 - Td=9.0 2023-11-19 06:12:00
1 2018-06-19 20:00:00 Ts debe ser mayor o igual a Td Ts=8.4 - Td=8.5 2023-11-19 06:12:00
1 2018-06-20 03:00:00 Ts debe ser mayor o igual a Td Ts=8.8 - Td=8.9 2023-11-19 06:12:00
1 2018-06-20 06:00:00 Ts debe ser mayor o igual a Td Ts=9.0 - Td=9.1 2023-11-19 06:12:00
1 2018-06-20 07:00:00 Ts debe ser mayor o igual a Td Ts=8.6 - Td=8.7 2023-11-19 06:12:00
1 2018-06-20 15:00:00 Ts debe ser mayor o igual a Td Ts=7.6 - Td=7.7 2023-11-19 06:12:00
1 2018-06-20 19:00:00 Ts debe ser mayor o igual a Td Ts=8.5 - Td=8.6 2023-11-19 06:12:00
1 2018-06-28 13:00:00 Ts debe ser mayor o igual a Td Ts=8.5 - Td=8.6 2023-11-19 06:13:00
1 2018-06-28 14:00:00 Ts debe ser mayor o igual a Td Ts=8.3 - Td=8.4 2023-11-19 06:13:00
1 2018-06-28 15:00:00 Ts debe ser mayor o igual a Td Ts=8.6 - Td=8.7 2023-11-19 06:13:00
1 2018-06-28 16:00:00 Ts debe ser mayor o igual a Td Ts=9.1 - Td=9.2 2023-11-19 06:13:00
1 2018-06-28 18:00:00 Ts debe ser mayor o igual a Td Ts=9.3 - Td=9.4 2023-11-19 06:13:00
1 2018-06-28 20:00:00 Ts debe ser mayor o igual a Td Ts=9.3 - Td=9.4 2023-11-19 06:13:00
1 2018-06-28 21:00:00 Ts debe ser mayor o igual a Td Ts=7.5 - Td=7.6 2023-11-19 06:13:00
1 2018-06-30 07:00:00 Ts debe ser mayor o igual a Td Ts=7.6 - Td=7.7 2023-11-19 06:13:00
1 2018-06-30 17:00:00 Ts debe ser mayor o igual a Td Ts=10.4 - Td=10.5 2023-11-19 06:13:00
1 2018-07-10 13:00:00 Ts debe ser mayor o igual a Td Ts=4.8 - Td=4.9 2023-11-19 06:13:00
1 2018-07-10 15:00:00 Ts debe ser mayor o igual a Td Ts=7.2 - Td=7.3 2023-11-19 06:13:00
1 2018-07-10 17:00:00 Ts debe ser mayor o igual a Td Ts=8.1 - Td=8.2 2023-11-19 06:13:00
1 2018-07-10 18:00:00 Ts debe ser mayor o igual a Td Ts=8.5 - Td=8.6 2023-11-19 06:13:00
1 2018-08-07 06:00:00 Ts debe ser mayor o igual a Td Ts=8.4 - Td=8.5 2023-11-19 06:13:00
1 2018-08-07 09:00:00 Ts debe ser mayor o igual a Td Ts=7.2 - Td=7.3 2023-11-19 06:13:00
1 2018-08-07 10:00:00 Ts debe ser mayor o igual a Td Ts=7.1 - Td=7.2 2023-11-19 06:13:00
1 2018-08-07 14:00:00 Ts debe ser mayor o igual a Td Ts=8.3 - Td=8.4 2023-11-19 06:13:00
1 2018-09-18 12:00:00 Ts debe ser mayor o igual a Td Ts=8.3 - Td=8.4 2023-11-19 06:14:00
1 2018-09-18 13:00:00 Ts debe ser mayor o igual a Td Ts=11.4 - Td=11.5 2023-11-19 06:14:00
1 2018-11-03 10:00:00 Ts debe ser mayor o igual a Td Ts=8.7 - Td=8.8 2023-11-19 06:14:00
1 2018-11-03 11:00:00 Ts debe ser mayor o igual a Td Ts=9.3 - Td=9.4 2023-11-19 06:14:00
1 2019-05-06 12:00:00 Ts debe ser mayor o igual a Td Ts=7.1 - Td=7.2 2023-11-19 06:17:00
1 2019-05-06 13:00:00 Ts debe ser mayor o igual a Td Ts=7.8 - Td=7.9 2023-11-19 06:17:00
1 2019-05-06 15:00:00 Ts debe ser mayor o igual a Td Ts=8.9 - Td=9.0 2023-11-19 06:17:00
1 2019-05-07 08:00:00 Ts debe ser mayor o igual a Td Ts=7.0 - Td=7.1 2023-11-19 06:17:00
1 2019-06-08 15:00:00 Ts debe ser mayor o igual a Td Ts=6.9 - Td=7.0 2023-11-19 06:18:00
1 2019-07-02 16:00:00 Ts debe ser mayor o igual a Td Ts=7.6 - Td=7.7 2023-11-19 06:18:00
1 2019-07-03 06:00:00 Ts debe ser mayor o igual a Td Ts=4.8 - Td=4.9 2023-11-19 06:18:00
1 2019-07-18 16:00:00 Ts debe ser mayor o igual a Td Ts=7.2 - Td=7.3 2023-11-19 06:18:00
1 2019-07-21 14:00:00 Ts debe ser mayor o igual a Td Ts=7.6 - Td=7.7 2023-11-19 06:18:00
1 2019-07-29 13:00:00 Ts debe ser mayor o igual a Td Ts=10.5 - Td=10.6 2023-11-19 06:18:00
1 2019-08-19 14:00:00 Ts debe ser mayor o igual a Td Ts=7.7 - Td=7.8 2023-11-19 06:19:00
1 2019-08-27 08:00:00 Ts debe ser mayor o igual a Td Ts=9.0 - Td=9.1 2023-11-19 06:19:00
1 2019-08-27 10:00:00 Ts debe ser mayor o igual a Td Ts=8.8 - Td=8.9 2023-11-19 06:19:00
1 2019-08-27 12:00:00 Ts debe ser mayor o igual a Td Ts=9.2 - Td=9.3 2023-11-19 06:19:00
1 2019-08-28 14:00:00 Ts debe ser mayor o igual a Td Ts=11.7 - Td=11.8 2023-11-19 06:19:00
1 2019-08-28 17:00:00 Ts debe ser mayor o igual a Td Ts=13.0 - Td=13.1 2023-11-19 06:19:00
1 2019-08-28 18:00:00 Ts debe ser mayor o igual a Td Ts=13.3 - Td=13.4 2023-11-19 06:19:00
1 2019-09-07 14:00:00 Ts debe ser mayor o igual a Td Ts=8.6 - Td=8.7 2023-11-19 06:19:00
1 2019-09-07 15:00:00 Ts debe ser mayor o igual a Td Ts=8.7 - Td=8.8 2023-11-19 06:19:00
1 2019-09-15 06:00:00 Ts debe ser mayor o igual a Td Ts=9.3 - Td=9.4 2023-11-19 06:19:00
1 2019-09-15 09:00:00 Ts debe ser mayor o igual a Td Ts=8.9 - Td=9.0 2023-11-19 06:19:00
1 2019-09-15 12:00:00 Ts debe ser mayor o igual a Td Ts=7.8 - Td=7.9 2023-11-19 06:19:00
1 2019-10-01 11:00:00 Ts debe ser mayor o igual a Td Ts=0.1 - Td=1.3 2023-11-08 09:41:00
1 2019-10-01 12:00:00 Ts debe ser mayor o igual a Td Ts=1.5 - Td=6.3 2023-11-08 09:41:00
1 2019-10-01 13:00:00 Ts debe ser mayor o igual a Td Ts=6.7 - Td=8.7 2023-11-08 09:41:00
1 2019-10-02 09:00:00 Ts debe ser mayor o igual a Td Ts=0.2 - Td=1.3 2023-11-08 09:41:00
1 2019-10-02 11:00:00 Ts debe ser mayor o igual a Td Ts=-0.5 - Td=1.3 2023-11-08 09:41:00
1 2019-10-02 12:00:00 Ts debe ser mayor o igual a Td Ts=1.4 - Td=5.3 2023-11-08 09:41:00
1 2019-10-02 13:00:00 Ts debe ser mayor o igual a Td Ts=5.4 - Td=7.4 2023-11-08 09:41:00
1 2019-10-03 08:00:00 Ts debe ser mayor o igual a Td Ts=0.1 - Td=1.2 2023-11-08 09:41:00
1 2019-10-03 11:00:00 Ts debe ser mayor o igual a Td Ts=-0.6 - Td=0.5 2023-11-08 09:41:00
1 2019-10-03 12:00:00 Ts debe ser mayor o igual a Td Ts=0.7 - Td=2.6 2023-11-08 09:41:00
1 2019-10-03 13:00:00 Ts debe ser mayor o igual a Td Ts=2.7 - Td=4.6 2023-11-08 09:41:00
1 2019-10-03 14:00:00 Ts debe ser mayor o igual a Td Ts=4.7 - Td=5.4 2023-11-08 09:41:00
1 2019-10-03 15:00:00 Ts debe ser mayor o igual a Td Ts=5.6 - Td=6.5 2023-11-08 09:41:00
1 2019-10-03 16:00:00 Ts debe ser mayor o igual a Td Ts=6.7 - Td=7.9 2023-11-08 09:41:00
1 2019-10-03 17:00:00 Ts debe ser mayor o igual a Td Ts=8.1 - Td=11.2 2023-11-08 09:41:00
1 2019-10-04 08:00:00 Ts debe ser mayor o igual a Td Ts=0.5 - Td=0.6 2023-11-08 09:41:00
1 2019-10-04 09:00:00 Ts debe ser mayor o igual a Td Ts=1.0 - Td=1.3 2023-11-08 09:41:00
1 2019-10-04 11:00:00 Ts debe ser mayor o igual a Td Ts=0.6 - Td=1.5 2023-11-08 09:41:00
1 2019-10-04 12:00:00 Ts debe ser mayor o igual a Td Ts=1.7 - Td=4.2 2023-11-08 09:41:00
1 2019-10-04 13:00:00 Ts debe ser mayor o igual a Td Ts=4.4 - Td=6.1 2023-11-08 09:41:00
1 2019-10-04 14:00:00 Ts debe ser mayor o igual a Td Ts=7.3 - Td=7.4 2023-11-08 09:41:00
1 2019-10-05 11:00:00 Ts debe ser mayor o igual a Td Ts=-0.1 - Td=0.4 2023-11-08 09:41:00
1 2019-10-05 12:00:00 Ts debe ser mayor o igual a Td Ts=0.9 - Td=3.2 2023-11-08 09:41:00
1 2019-10-05 13:00:00 Ts debe ser mayor o igual a Td Ts=3.7 - Td=5.3 2023-11-08 09:41:00
1 2019-10-06 11:00:00 Ts debe ser mayor o igual a Td Ts=5.9 - Td=6.3 2023-11-08 09:41:00
1 2019-10-06 12:00:00 Ts debe ser mayor o igual a Td Ts=6.9 - Td=7.9 2023-11-08 09:41:00
1 2019-10-08 11:00:00 Ts debe ser mayor o igual a Td Ts=2.6 - Td=3.7 2023-11-08 09:41:00
1 2019-10-08 12:00:00 Ts debe ser mayor o igual a Td Ts=4.3 - Td=5.2 2023-11-08 09:41:00
1 2019-10-08 13:00:00 Ts debe ser mayor o igual a Td Ts=6.1 - Td=6.4 2023-11-08 09:41:00
1 2019-10-09 11:00:00 Ts debe ser mayor o igual a Td Ts=5.9 - Td=6.2 2023-11-08 09:41:00
1 2019-10-09 12:00:00 Ts debe ser mayor o igual a Td Ts=7.3 - Td=7.5 2023-11-08 09:41:00
1 2019-10-09 13:00:00 Ts debe ser mayor o igual a Td Ts=9.2 - Td=9.5 2023-11-08 09:41:00
1 2019-10-10 11:00:00 Ts debe ser mayor o igual a Td Ts=8.6 - Td=9.1 2023-11-08 09:41:00
1 2019-10-10 12:00:00 Ts debe ser mayor o igual a Td Ts=9.6 - Td=11.1 2023-11-08 09:41:00
1 2019-10-11 11:00:00 Ts debe ser mayor o igual a Td Ts=8.3 - Td=9.3 2023-11-08 09:41:00
1 2019-10-11 12:00:00 Ts debe ser mayor o igual a Td Ts=9.8 - Td=11.0 2023-11-08 09:41:00
1 2019-10-13 11:00:00 Ts debe ser mayor o igual a Td Ts=6.9 - Td=7.0 2023-11-08 09:41:00
1 2019-10-13 13:00:00 Ts debe ser mayor o igual a Td Ts=8.4 - Td=8.6 2023-11-08 09:41:00
1 2019-10-13 14:00:00 Ts debe ser mayor o igual a Td Ts=9.8 - Td=10.2 2023-11-08 09:41:00
1 2019-10-14 05:00:00 Ts debe ser mayor o igual a Td Ts=9.3 - Td=9.5 2023-11-08 09:41:00
1 2019-10-14 07:00:00 Ts debe ser mayor o igual a Td Ts=10.5 - Td=10.6 2023-11-08 09:41:00
1 2019-10-16 11:00:00 Ts debe ser mayor o igual a Td Ts=2.3 - Td=6.4 2023-11-08 09:41:00
1 2019-10-16 12:00:00 Ts debe ser mayor o igual a Td Ts=6.9 - Td=8.8 2023-11-08 09:41:00
1 2019-10-16 13:00:00 Ts debe ser mayor o igual a Td Ts=9.9 - Td=10.8 2023-11-08 09:41:00
1 2019-10-18 11:00:00 Ts debe ser mayor o igual a Td Ts=2.2 - Td=5.1 2023-11-08 09:41:00
1 2019-10-18 12:00:00 Ts debe ser mayor o igual a Td Ts=5.6 - Td=5.7 2023-11-08 09:41:00
1 2019-10-18 13:00:00 Ts debe ser mayor o igual a Td Ts=6.3 - Td=6.5 2023-11-08 09:41:00
1 2019-10-18 14:00:00 Ts debe ser mayor o igual a Td Ts=7.2 - Td=7.4 2023-11-08 09:41:00
1 2019-10-18 15:00:00 Ts debe ser mayor o igual a Td Ts=8.6 - Td=10.9 2023-11-08 09:41:00
1 2019-10-19 10:00:00 Ts debe ser mayor o igual a Td Ts=4.7 - Td=5.4 2023-11-08 09:41:00
1 2019-10-19 11:00:00 Ts debe ser mayor o igual a Td Ts=5.7 - Td=9.1 2023-11-08 09:41:00
1 2019-10-19 12:00:00 Ts debe ser mayor o igual a Td Ts=9.3 - Td=12.7 2023-11-08 09:41:00
1 2019-10-20 11:00:00 Ts debe ser mayor o igual a Td Ts=8.8 - Td=9.4 2023-11-08 09:41:00
1 2019-10-21 09:00:00 Ts debe ser mayor o igual a Td Ts=3.0 - Td=3.1 2023-11-08 09:41:00
1 2019-10-21 11:00:00 Ts debe ser mayor o igual a Td Ts=3.8 - Td=6.9 2023-11-08 09:41:00
1 2019-10-21 12:00:00 Ts debe ser mayor o igual a Td Ts=7.4 - Td=8.9 2023-11-08 09:41:00
1 2019-10-21 13:00:00 Ts debe ser mayor o igual a Td Ts=9.7 - Td=10.3 2023-11-08 09:41:00
1 2019-10-22 11:00:00 Ts debe ser mayor o igual a Td Ts=0.4 - Td=4.8 2023-11-08 09:41:00
1 2019-10-23 11:00:00 Ts debe ser mayor o igual a Td Ts=0.3 - Td=7.2 2023-11-08 09:41:00
1 2019-10-23 12:00:00 Ts debe ser mayor o igual a Td Ts=7.6 - Td=10.2 2023-11-08 09:41:00
1 2019-10-24 11:00:00 Ts debe ser mayor o igual a Td Ts=8.4 - Td=8.5 2023-11-08 09:41:00
1 2019-10-25 11:00:00 Ts debe ser mayor o igual a Td Ts=2.4 - Td=7.9 2023-11-08 09:41:00
1 2019-10-25 12:00:00 Ts debe ser mayor o igual a Td Ts=8.4 - Td=9.1 2023-11-08 09:41:00
1 2019-10-25 13:00:00 Ts debe ser mayor o igual a Td Ts=10.1 - Td=10.3 2023-11-08 09:41:00
1 2019-10-26 11:00:00 Ts debe ser mayor o igual a Td Ts=9.7 - Td=10.9 2023-11-08 09:41:00
1 2019-10-26 12:00:00 Ts debe ser mayor o igual a Td Ts=11.6 - Td=12.7 2023-11-08 09:41:00
1 2019-10-27 11:00:00 Ts debe ser mayor o igual a Td Ts=12.0 - Td=12.3 2023-11-08 09:41:00
1 2019-10-27 12:00:00 Ts debe ser mayor o igual a Td Ts=12.8 - Td=12.9 2023-11-08 09:41:00
1 2019-10-28 11:00:00 Ts debe ser mayor o igual a Td Ts=3.8 - Td=8.7 2023-11-08 09:41:00
1 2019-10-28 12:00:00 Ts debe ser mayor o igual a Td Ts=9.1 - Td=11.6 2023-11-08 09:41:00
1 2019-10-29 11:00:00 Ts debe ser mayor o igual a Td Ts=4.1 - Td=8.3 2023-11-08 09:41:00
1 2019-10-29 12:00:00 Ts debe ser mayor o igual a Td Ts=8.9 - Td=11.3 2023-11-08 09:41:00
1 2019-10-30 11:00:00 Ts debe ser mayor o igual a Td Ts=1.2 - Td=5.4 2023-11-08 09:41:00
1 2019-10-30 12:00:00 Ts debe ser mayor o igual a Td Ts=5.7 - Td=8.8 2023-11-08 09:41:00
1 2019-10-31 11:00:00 Ts debe ser mayor o igual a Td Ts=3.8 - Td=6.1 2023-11-08 09:41:00
1 2019-10-31 12:00:00 Ts debe ser mayor o igual a Td Ts=6.6 - Td=7.9 2023-11-08 09:41:00
1 2019-11-01 11:00:00 Ts debe ser mayor o igual a Td Ts=7.9 - Td=8.3 2023-11-08 09:42:00
1 2019-11-01 19:00:00 Ts debe ser mayor o igual a Td Ts=13.7 - Td=14.0 2023-11-08 09:42:00
1 2019-11-02 11:00:00 Ts debe ser mayor o igual a Td Ts=4.3 - Td=6.2 2023-11-08 09:42:00
1 2019-11-02 12:00:00 Ts debe ser mayor o igual a Td Ts=6.5 - Td=8.3 2023-11-08 09:42:00
1 2019-11-03 10:00:00 Ts debe ser mayor o igual a Td Ts=5.5 - Td=6.4 2023-11-08 09:42:00
1 2019-11-03 12:00:00 Ts debe ser mayor o igual a Td Ts=7.6 - Td=7.7 2023-11-08 09:42:00
1 2019-11-03 13:00:00 Ts debe ser mayor o igual a Td Ts=8.3 - Td=8.6 2023-11-08 09:42:00
1 2019-11-03 14:00:00 Ts debe ser mayor o igual a Td Ts=9.2 - Td=9.4 2023-11-08 09:42:00
1 2019-11-04 10:00:00 Ts debe ser mayor o igual a Td Ts=7.0 - Td=7.6 2023-11-08 09:42:00
1 2019-11-04 11:00:00 Ts debe ser mayor o igual a Td Ts=8.0 - Td=8.9 2023-11-08 09:42:00
1 2019-11-04 12:00:00 Ts debe ser mayor o igual a Td Ts=9.3 - Td=10.1 2023-11-08 09:42:00
1 2019-11-04 13:00:00 Ts debe ser mayor o igual a Td Ts=10.5 - Td=11.9 2023-11-08 09:42:00
1 2019-11-04 14:00:00 Ts debe ser mayor o igual a Td Ts=12.8 - Td=13.4 2023-11-08 09:42:00
1 2019-11-05 11:00:00 Ts debe ser mayor o igual a Td Ts=4.6 - Td=6.4 2023-11-08 09:42:00
1 2019-11-05 12:00:00 Ts debe ser mayor o igual a Td Ts=6.8 - Td=9.0 2023-11-08 09:42:00
1 2019-11-05 13:00:00 Ts debe ser mayor o igual a Td Ts=10.1 - Td=10.5 2023-11-08 09:42:00
1 2019-11-06 11:00:00 Ts debe ser mayor o igual a Td Ts=5.9 - Td=7.6 2023-11-08 09:42:00
1 2019-11-06 12:00:00 Ts debe ser mayor o igual a Td Ts=8.1 - Td=10.5 2023-11-08 09:42:00
1 2019-11-07 11:00:00 Ts debe ser mayor o igual a Td Ts=6.9 - Td=7.7 2023-11-08 09:42:00
1 2019-11-07 12:00:00 Ts debe ser mayor o igual a Td Ts=8.3 - Td=9.1 2023-11-08 09:42:00
1 2019-11-07 13:00:00 Ts debe ser mayor o igual a Td Ts=9.8 - Td=10.8 2023-11-08 09:42:00
1 2019-11-08 11:00:00 Ts debe ser mayor o igual a Td Ts=9.3 - Td=9.6 2023-11-08 09:42:00
1 2019-11-09 11:00:00 Ts debe ser mayor o igual a Td Ts=5.9 - Td=9.4 2023-11-08 09:42:00
1 2019-11-09 12:00:00 Ts debe ser mayor o igual a Td Ts=10.3 - Td=11.7 2023-11-08 09:42:00
1 2019-11-10 11:00:00 Ts debe ser mayor o igual a Td Ts=8.0 - Td=11.1 2023-11-08 09:42:00
1 2019-11-10 12:00:00 Ts debe ser mayor o igual a Td Ts=12.2 - Td=12.9 2023-11-08 09:42:00
1 2019-11-11 08:00:00 Ts debe ser mayor o igual a Td Ts=10.6 - Td=11.7 2023-11-08 09:42:00
1 2019-11-11 11:00:00 Ts debe ser mayor o igual a Td Ts=9.5 - Td=12.9 2023-11-08 09:42:00
1 2019-11-11 12:00:00 Ts debe ser mayor o igual a Td Ts=13.4 - Td=14.7 2023-11-08 09:42:00
1 2019-11-12 10:00:00 Ts debe ser mayor o igual a Td Ts=7.7 - Td=8.5 2023-11-08 09:42:00
1 2019-11-12 11:00:00 Ts debe ser mayor o igual a Td Ts=9.0 - Td=12.2 2023-11-08 09:42:00
1 2019-11-12 12:00:00 Ts debe ser mayor o igual a Td Ts=12.7 - Td=16.9 2023-11-08 09:42:00
1 2019-11-13 11:00:00 Ts debe ser mayor o igual a Td Ts=9.7 - Td=11.6 2023-11-08 09:42:00
1 2019-11-14 10:00:00 Ts debe ser mayor o igual a Td Ts=8.6 - Td=9.5 2023-11-08 09:42:00
1 2019-11-14 11:00:00 Ts debe ser mayor o igual a Td Ts=10.3 - Td=12.1 2023-11-08 09:42:00
1 2019-11-14 12:00:00 Ts debe ser mayor o igual a Td Ts=13.4 - Td=13.7 2023-11-08 09:42:00
1 2019-11-15 10:00:00 Ts debe ser mayor o igual a Td Ts=10.3 - Td=10.7 2023-11-08 09:42:00
1 2019-11-15 11:00:00 Ts debe ser mayor o igual a Td Ts=11.2 - Td=13.2 2023-11-08 09:42:00
1 2019-11-15 12:00:00 Ts debe ser mayor o igual a Td Ts=13.8 - Td=15.1 2023-11-08 09:42:00
1 2019-11-16 12:00:00 Ts debe ser mayor o igual a Td Ts=14.0 - Td=14.1 2023-11-08 09:42:00
1 2019-11-16 13:00:00 Ts debe ser mayor o igual a Td Ts=14.5 - Td=14.8 2023-11-08 09:42:00
1 2019-11-16 14:00:00 Ts debe ser mayor o igual a Td Ts=15.3 - Td=15.7 2023-11-08 09:42:00
1 2019-11-17 11:00:00 Ts debe ser mayor o igual a Td Ts=5.0 - Td=9.0 2023-11-08 09:42:00
1 2019-11-17 12:00:00 Ts debe ser mayor o igual a Td Ts=9.4 - Td=11.1 2023-11-08 09:42:00
1 2019-11-18 11:00:00 Ts debe ser mayor o igual a Td Ts=7.5 - Td=9.3 2023-11-08 09:42:00
1 2019-11-18 12:00:00 Ts debe ser mayor o igual a Td Ts=9.8 - Td=11.1 2023-11-08 09:42:00
1 2019-11-19 11:00:00 Ts debe ser mayor o igual a Td Ts=6.1 - Td=9.6 2023-11-08 09:42:00
1 2019-11-19 12:00:00 Ts debe ser mayor o igual a Td Ts=11.7 - Td=12.5 2023-11-08 09:42:00
1 2019-11-20 11:00:00 Ts debe ser mayor o igual a Td Ts=6.3 - Td=9.9 2023-11-08 09:42:00
1 2019-11-20 12:00:00 Ts debe ser mayor o igual a Td Ts=11.0 - Td=12.4 2023-11-08 09:42:00
1 2019-11-22 10:00:00 Ts debe ser mayor o igual a Td Ts=5.7 - Td=6.3 2023-11-08 09:42:00
1 2019-11-22 11:00:00 Ts debe ser mayor o igual a Td Ts=6.9 - Td=10.6 2023-11-08 09:42:00
1 2019-11-22 12:00:00 Ts debe ser mayor o igual a Td Ts=11.2 - Td=13.9 2023-11-08 09:42:00
1 2019-11-23 10:00:00 Ts debe ser mayor o igual a Td Ts=8.3 - Td=10.7 2023-11-08 09:42:00
1 2019-11-23 11:00:00 Ts debe ser mayor o igual a Td Ts=11.3 - Td=12.5 2023-11-08 09:42:00
1 2019-11-23 12:00:00 Ts debe ser mayor o igual a Td Ts=13.1 - Td=13.7 2023-11-08 09:42:00
1 2019-11-24 11:00:00 Ts debe ser mayor o igual a Td Ts=12.8 - Td=13.1 2023-11-08 09:42:00
1 2019-11-26 11:00:00 Ts debe ser mayor o igual a Td Ts=1.8 - Td=5.2 2023-11-08 09:42:00
1 2019-11-26 12:00:00 Ts debe ser mayor o igual a Td Ts=6.1 - Td=7.4 2023-11-08 09:42:00
1 2019-11-27 10:00:00 Ts debe ser mayor o igual a Td Ts=4.3 - Td=4.5 2023-11-08 09:42:00
1 2019-11-27 11:00:00 Ts debe ser mayor o igual a Td Ts=5.4 - Td=5.8 2023-11-08 09:42:00
1 2019-11-28 11:00:00 Ts debe ser mayor o igual a Td Ts=6.9 - Td=7.6 2023-11-08 09:42:00
1 2019-11-28 12:00:00 Ts debe ser mayor o igual a Td Ts=9.4 - Td=9.7 2023-11-08 09:42:00
1 2019-11-29 06:00:00 Ts debe ser mayor o igual a Td Ts=6.3 - Td=7.4 2023-11-08 09:42:00
1 2019-11-29 08:00:00 Ts debe ser mayor o igual a Td Ts=8.6 - Td=8.9 2023-11-08 09:42:00
1 2019-11-29 13:00:00 Ts debe ser mayor o igual a Td Ts=11.9 - Td=14.1 2023-11-08 09:42:00
1 2019-11-30 11:00:00 Ts debe ser mayor o igual a Td Ts=5.4 - Td=7.1 2023-11-08 09:42:00
1 2019-11-30 12:00:00 Ts debe ser mayor o igual a Td Ts=8.2 - Td=8.4 2023-11-08 09:42:00
1 2019-12-01 11:00:00 Ts debe ser mayor o igual a Td Ts=5.9 - Td=10.1 2023-11-08 09:42:00
1 2019-12-01 12:00:00 Ts debe ser mayor o igual a Td Ts=11.3 - Td=12.7 2023-11-08 09:42:00
1 2019-12-02 11:00:00 Ts debe ser mayor o igual a Td Ts=8.8 - Td=11.1 2023-11-08 09:42:00
1 2019-12-03 11:00:00 Ts debe ser mayor o igual a Td Ts=8.2 - Td=9.2 2023-11-08 09:42:00
1 2019-12-04 11:00:00 Ts debe ser mayor o igual a Td Ts=5.7 - Td=6.6 2023-11-08 09:42:00
1 2019-12-05 11:00:00 Ts debe ser mayor o igual a Td Ts=9.4 - Td=9.9 2023-11-08 09:42:00
1 2019-12-06 11:00:00 Ts debe ser mayor o igual a Td Ts=9.5 - Td=10.0 2023-11-08 09:42:00
1 2019-12-07 10:00:00 Ts debe ser mayor o igual a Td Ts=6.5 - Td=6.8 2023-11-08 09:42:00
1 2019-12-07 11:00:00 Ts debe ser mayor o igual a Td Ts=7.5 - Td=11.3 2023-11-08 09:42:00
1 2019-12-07 12:00:00 Ts debe ser mayor o igual a Td Ts=12.1 - Td=14.3 2023-11-08 09:42:00
1 2019-12-08 11:00:00 Ts debe ser mayor o igual a Td Ts=7.7 - Td=11.4 2023-11-08 09:42:00
1 2019-12-08 12:00:00 Ts debe ser mayor o igual a Td Ts=12.4 - Td=13.7 2023-11-08 09:42:00
1 2019-12-09 10:00:00 Ts debe ser mayor o igual a Td Ts=7.9 - Td=8.3 2023-11-08 09:42:00
1 2019-12-09 11:00:00 Ts debe ser mayor o igual a Td Ts=8.9 - Td=12.9 2023-11-08 09:42:00
1 2019-12-09 12:00:00 Ts debe ser mayor o igual a Td Ts=13.8 - Td=14.9 2023-11-08 09:42:00
1 2019-12-10 10:00:00 Ts debe ser mayor o igual a Td Ts=7.4 - Td=7.7 2023-11-08 09:42:00
1 2019-12-10 11:00:00 Ts debe ser mayor o igual a Td Ts=8.3 - Td=12.8 2023-11-08 09:42:00
1 2019-12-10 12:00:00 Ts debe ser mayor o igual a Td Ts=13.6 - Td=13.9 2023-11-08 09:42:00
1 2019-12-11 10:00:00 Ts debe ser mayor o igual a Td Ts=6.8 - Td=9.4 2023-11-08 09:42:00
1 2019-12-11 11:00:00 Ts debe ser mayor o igual a Td Ts=9.9 - Td=11.2 2023-11-08 09:42:00
1 2019-12-11 12:00:00 Ts debe ser mayor o igual a Td Ts=11.7 - Td=11.8 2023-11-08 09:42:00
1 2019-12-11 13:00:00 Ts debe ser mayor o igual a Td Ts=12.4 - Td=13.7 2023-11-08 09:42:00
1 2019-12-13 10:00:00 Ts debe ser mayor o igual a Td Ts=7.4 - Td=8.1 2023-11-08 09:42:00
1 2019-12-13 11:00:00 Ts debe ser mayor o igual a Td Ts=9.3 - Td=9.9 2023-11-08 09:42:00
1 2019-12-14 10:00:00 Ts debe ser mayor o igual a Td Ts=11.6 - Td=11.9 2023-11-08 09:42:00
1 2019-12-14 13:00:00 Ts debe ser mayor o igual a Td Ts=13.0 - Td=14.1 2023-11-08 09:42:00
1 2019-12-15 11:00:00 Ts debe ser mayor o igual a Td Ts=7.4 - Td=9.4 2023-11-08 09:42:00
1 2019-12-16 11:00:00 Ts debe ser mayor o igual a Td Ts=8.4 - Td=10.0 2023-11-08 09:42:00
1 2019-12-17 11:00:00 Ts debe ser mayor o igual a Td Ts=9.0 - Td=10.4 2023-11-08 09:42:00
1 2019-12-18 06:00:00 Ts debe ser mayor o igual a Td Ts=13.8 - Td=31.2 2023-11-08 09:42:00
1 2019-12-19 12:00:00 Ts debe ser mayor o igual a Td Ts=14.7 - Td=32.9 2023-11-08 09:42:00
1 2019-12-20 11:00:00 Ts debe ser mayor o igual a Td Ts=8.6 - Td=33.5 2023-11-08 09:42:00
1 2019-12-21 09:00:00 Ts debe ser mayor o igual a Td Ts=10.1 - Td=14.7 2023-11-08 09:42:00
1 2019-12-21 10:00:00 Ts debe ser mayor o igual a Td Ts=9.7 - Td=14.1 2023-11-08 09:42:00
1 2019-12-22 06:00:00 Ts debe ser mayor o igual a Td Ts=13.5 - Td=18.8 2023-11-08 09:42:00
1 2019-12-22 07:00:00 Ts debe ser mayor o igual a Td Ts=10.6 - Td=29.4 2023-11-08 09:42:00
1 2019-12-23 09:00:00 Ts debe ser mayor o igual a Td Ts=13.2 - Td=46.5 2023-11-08 09:42:00
1 2019-12-24 03:00:00 Ts debe ser mayor o igual a Td Ts=17.8 - Td=48.8 2023-11-08 09:42:00
1 2019-12-24 17:00:00 Ts debe ser mayor o igual a Td Ts=15.3 - Td=21.2 2023-11-08 09:42:00
1 2019-12-25 08:00:00 Ts debe ser mayor o igual a Td Ts=9.7 - Td=12.4 2023-11-08 09:42:00
1 2019-12-25 09:00:00 Ts debe ser mayor o igual a Td Ts=8.3 - Td=27.6 2023-11-08 09:42:00
1 2019-12-25 10:00:00 Ts debe ser mayor o igual a Td Ts=7.4 - Td=31.8 2023-11-08 09:42:00
1 2019-12-26 05:00:00 Ts debe ser mayor o igual a Td Ts=10.7 - Td=11.2 2023-11-08 09:42:00
1 2019-12-26 06:00:00 Ts debe ser mayor o igual a Td Ts=9.7 - Td=10.6 2023-11-08 09:42:00
1 2019-12-26 07:00:00 Ts debe ser mayor o igual a Td Ts=10.6 - Td=38.2 2023-11-08 09:42:00
1 2019-12-26 11:00:00 Ts debe ser mayor o igual a Td Ts=8.3 - Td=8.8 2023-11-08 09:42:00
1 2019-12-27 11:00:00 Ts debe ser mayor o igual a Td Ts=8.0 - Td=8.2 2023-11-08 09:42:00
1 2019-12-28 05:00:00 Ts debe ser mayor o igual a Td Ts=13.0 - Td=46.5 2023-11-08 09:42:00
1 2019-12-28 11:00:00 Ts debe ser mayor o igual a Td Ts=9.3 - Td=16.5 2023-11-08 09:42:00
1 2019-12-29 06:00:00 Ts debe ser mayor o igual a Td Ts=14.5 - Td=48.2 2023-11-08 09:42:00
1 2019-12-29 08:00:00 Ts debe ser mayor o igual a Td Ts=13.7 - Td=41.2 2023-11-08 09:42:00
1 2019-12-29 10:00:00 Ts debe ser mayor o igual a Td Ts=13.3 - Td=44.1 2023-11-08 09:42:00
1 2019-12-30 06:00:00 Ts debe ser mayor o igual a Td Ts=13.2 - Td=16.5 2023-11-08 09:42:00
1 2019-12-30 08:00:00 Ts debe ser mayor o igual a Td Ts=13.0 - Td=14.1 2023-11-08 09:42:00
1 2019-12-31 09:00:00 Ts debe ser mayor o igual a Td Ts=12.9 - Td=32.4 2023-11-08 09:42:00
1 2022-04-07 14:00:00 Ts debe ser mayor o igual a Td Ts=0.0 - Td=8.0 2022-04-07 14:31:00
Errores del Nivel 350
Informe generado el 16-07-2024 19:42
Requerimiento: RE6001